Toyofujimaru No.2 — 7JDI — position and weather

sailwx.info

Track history (hours):
 
Tides and Currents Weather Stations Pressure Air Temp Water Temp Dewpoint Dewpoint Depression Visibility Wind Speed Wind Dir Waves Ship Positions

Toyofujimaru No.2

Last reported at 2018-May-19 11:32 UTC. Time now 2018-May-23 12:51 UTC.
Position N 33°32' E 135°01'.

Length 165 m; draft 6.5 m.

Type: Ship. MMSI: 432667000.

Date/timePositionNaut miles runAvg speedWind from/ knotsBaromVisibWave heightAir tempDewpointWater temp
2018-May-19 11:32N 33°32' E 135°01'115.0
2018-May-19 11:30N 33°32' E 135°00'1414.8
2018-May-19 10:33N 33°33' E 134°43'115.1
2018-May-19 10:30N 33°33' E 134°43'87118.3
2018-May-17 10:57N 25°38' E 120°42'919.5
2018-May-17 10:29N 25°33' E 120°34'3120.4
2018-May-17 08:57N 25°11' E 120°10'1020.7
2018-May-17 08:29N 25°03' E 120°03'1020.4
2018-May-17 08:00N 24°56' E 119°56'3319.9
2018-May-17 06:21N 24°31' E 119°32'719.3
2018-May-17 05:58N 24°26' E 119°25'918.9
2018-May-17 05:30N 24°21' E 119°18'918.7
2018-May-17 05:00N 24°15' E 119°10'918.6
2018-May-17 04:30N 24°09' E 119°02'1118.7
2018-May-17 03:56N 24°02' E 118°53'819.2
2018-May-17 03:30N 23°57' E 118°46'1019.3
2018-May-17 03:00N 23°50' E 118°39'1019.4
2018-May-17 02:30N 23°45' E 118°30'1019.7
2018-May-17 02:00N 23°39' E 118°21'1019.9
2018-May-17 01:29N 23°32' E 118°13'920.0
2018-May-17 01:00N 23°26' E 118°05'1219.9
2018-May-17 00:24N 23°18' E 117°55'819.5
2018-May-16 23:58N 23°14' E 117°47'918.9
2018-May-16 23:29N 23°08' E 117°39'15 0.3
2018-May-14 20:42N 23°09' E 117°23'418.6
2018-May-14 20:29N 23°11' E 117°27'1019.1
2018-May-14 19:56N 23°17' E 117°36'919.1
2018-May-14 19:29N 23°22' E 117°44'919.2
2018-May-14 19:00N 23°27' E 117°52'1019.2
2018-May-14 18:30N 23°33' E 118°01'1019.1
2018-May-14 17:59N 23°39' E 118°10'918.8
2018-May-14 17:29N 23°44' E 118°18'918.8
2018-May-14 17:00N 23°49' E 118°26'1018.7
2018-May-14 16:28N 23°55' E 118°35'918.3
2018-May-14 15:59N 24°00' E 118°43'1717.7
2018-May-14 15:02N 24°09' E 118°58'718.3
2018-May-14 14:40N 24°13' E 119°04'1218.2
2018-May-14 14:00N 24°20' E 119°15'1917.0
2018-May-14 12:51N 24°31' E 119°33'715.7
2018-May-14 12:25N 24°36' E 119°38'38216.6
2018-May-13 13:27N 30°07' E 123°13'1617.4
2018-May-13 12:31N 30°23' E 123°14'2417.0
2018-May-13 11:08N 30°46' E 123°13'317.1
2018-May-13 10:57N 30°49' E 123°11'816.9
2018-May-13 10:27N 30°55' E 123°04'817.2
2018-May-13 10:00N 31°01' E 122°58'1217.1
2018-May-13 09:19N 31°05' E 122°45'617.7
2018-May-13 08:59N 31°05' E 122°38'714.5
2018-May-13 08:30N 31°05' E 122°30'6 9.1
2018-May-13 07:53N 31°05' E 122°23'511.8
2018-May-13 07:30N 31°06' E 122°18'1113.8
2018-May-13 06:43N 31°13' E 122°08'512.9
2018-May-13 06:19N 31°14' E 122°02'514.6
2018-May-13 05:58N 31°15' E 121°56'714.5
2018-May-13 05:27N 31°17' E 121°48'612.0
2018-May-13 04:58N 31°20' E 121°42'1 0.1
2018-May-12 15:41N 31°20' E 121°41'2 8.2
2018-May-12 15:27N 31°19' E 121°42'4 9.8
2018-May-12 15:00N 31°16' E 121°46'714.4
2018-May-12 14:31N 31°11' E 121°51'713.7
2018-May-12 14:00N 31°07' E 121°58'714.0
2018-May-12 13:30N 31°04' E 122°05'611.7
2018-May-12 13:00N 31°03' E 122°12'4 8.6
2018-May-12 12:30N 31°03' E 122°17'3 5.0
2018-May-12 12:00N 31°02' E 122°20'611.8
2018-May-12 11:30N 31°01' E 122°27'1712.9
2018-May-12 10:09N 30°60' E 122°47'2 8.0
2018-May-12 09:50N 31°02' E 122°47'0 0.3
2018-May-12 09:30N 31°02' E 122°47'0 0.1
2018-May-12 09:00N 31°02' E 122°47'0 0.0
2018-May-12 08:27N 31°02' E 122°47'0 0.1
2018-May-12 07:39N 31°02' E 122°47'0 0.0
2018-May-12 07:24N 31°02' E 122°47'0 0.1
2018-May-12 06:57N 31°02' E 122°47'  
Track history (hours):
 
Tides and Currents Weather Stations Pressure Air Temp Water Temp Dewpoint Dewpoint Depression Visibility Wind Speed Wind Dir Waves Ship Positions

Toyofujimaru No.2

Last reported at 2018-May-19 11:32 UTC. Time now 2018-May-23 12:51 UTC.
Position N 33°32' E 135°01'.

Length 165 m; draft 6.5 m.

Type: Ship. MMSI: 432667000.

Date/timePositionNaut miles runAvg speedWind from/ knotsBaromVisibWave heightAir tempDewpointWater temp
2018-May-19 11:32N 33°32' E 135°01'115.0
2018-May-19 11:30N 33°32' E 135°00'1414.8
2018-May-19 10:33N 33°33' E 134°43'115.1
2018-May-19 10:30N 33°33' E 134°43'87118.3
2018-May-17 10:57N 25°38' E 120°42'919.5
2018-May-17 10:29N 25°33' E 120°34'3120.4
2018-May-17 08:57N 25°11' E 120°10'1020.7
2018-May-17 08:29N 25°03' E 120°03'1020.4
2018-May-17 08:00N 24°56' E 119°56'3319.9
2018-May-17 06:21N 24°31' E 119°32'719.3
2018-May-17 05:58N 24°26' E 119°25'918.9
2018-May-17 05:30N 24°21' E 119°18'918.7
2018-May-17 05:00N 24°15' E 119°10'918.6
2018-May-17 04:30N 24°09' E 119°02'1118.7
2018-May-17 03:56N 24°02' E 118°53'819.2
2018-May-17 03:30N 23°57' E 118°46'1019.3
2018-May-17 03:00N 23°50' E 118°39'1019.4
2018-May-17 02:30N 23°45' E 118°30'1019.7
2018-May-17 02:00N 23°39' E 118°21'1019.9
2018-May-17 01:29N 23°32' E 118°13'920.0
2018-May-17 01:00N 23°26' E 118°05'1219.9
2018-May-17 00:24N 23°18' E 117°55'819.5
2018-May-16 23:58N 23°14' E 117°47'918.9
2018-May-16 23:29N 23°08' E 117°39'15 0.3
2018-May-14 20:42N 23°09' E 117°23'418.6
2018-May-14 20:29N 23°11' E 117°27'1019.1
2018-May-14 19:56N 23°17' E 117°36'919.1
2018-May-14 19:29N 23°22' E 117°44'919.2
2018-May-14 19:00N 23°27' E 117°52'1019.2
2018-May-14 18:30N 23°33' E 118°01'1019.1
2018-May-14 17:59N 23°39' E 118°10'918.8
2018-May-14 17:29N 23°44' E 118°18'918.8
2018-May-14 17:00N 23°49' E 118°26'1018.7
2018-May-14 16:28N 23°55' E 118°35'918.3
2018-May-14 15:59N 24°00' E 118°43'1717.7
2018-May-14 15:02N 24°09' E 118°58'718.3
2018-May-14 14:40N 24°13' E 119°04'1218.2
2018-May-14 14:00N 24°20' E 119°15'1917.0
2018-May-14 12:51N 24°31' E 119°33'715.7
2018-May-14 12:25N 24°36' E 119°38'38216.6
2018-May-13 13:27N 30°07' E 123°13'1617.4
2018-May-13 12:31N 30°23' E 123°14'2417.0
2018-May-13 11:08N 30°46' E 123°13'317.1
2018-May-13 10:57N 30°49' E 123°11'816.9
2018-May-13 10:27N 30°55' E 123°04'817.2
2018-May-13 10:00N 31°01' E 122°58'1217.1
2018-May-13 09:19N 31°05' E 122°45'617.7
2018-May-13 08:59N 31°05' E 122°38'714.5
2018-May-13 08:30N 31°05' E 122°30'6 9.1
2018-May-13 07:53N 31°05' E 122°23'511.8
2018-May-13 07:30N 31°06' E 122°18'1113.8
2018-May-13 06:43N 31°13' E 122°08'512.9
2018-May-13 06:19N 31°14' E 122°02'514.6
2018-May-13 05:58N 31°15' E 121°56'714.5
2018-May-13 05:27N 31°17' E 121°48'612.0
2018-May-13 04:58N 31°20' E 121°42'1 0.1
2018-May-12 15:41N 31°20' E 121°41'2 8.2
2018-May-12 15:27N 31°19' E 121°42'4 9.8
2018-May-12 15:00N 31°16' E 121°46'714.4
2018-May-12 14:31N 31°11' E 121°51'713.7
2018-May-12 14:00N 31°07' E 121°58'714.0
2018-May-12 13:30N 31°04' E 122°05'611.7
2018-May-12 13:00N 31°03' E 122°12'4 8.6
2018-May-12 12:30N 31°03' E 122°17'3 5.0
2018-May-12 12:00N 31°02' E 122°20'611.8
2018-May-12 11:30N 31°01' E 122°27'1712.9
2018-May-12 10:09N 30°60' E 122°47'2 8.0
2018-May-12 09:50N 31°02' E 122°47'0 0.3
2018-May-12 09:30N 31°02' E 122°47'0 0.1
2018-May-12 09:00N 31°02' E 122°47'0 0.0
2018-May-12 08:27N 31°02' E 122°47'0 0.1
2018-May-12 07:39N 31°02' E 122°47'0 0.0
2018-May-12 07:24N 31°02' E 122°47'0 0.1
2018-May-12 06:57N 31°02' E 122°47'  

Dump ship's entire track history